Albia, IA (52531)

5:34 PM CST on February 26, 2017 (GMT -0600)
Lovilia,IA | | Change Station

Elev 925 ft 41.13 °N, 92.90 °W | Updated 20 seconds ago

Partly Cloudy
Partly Cloudy
46.1 °F
Feels Like 43 °F
N
6.0
Wind Variable Wind from West

Today
High -- | Low -- °F
--% Chance of Precip.
Yesterday
High -- | Low -- °F
Precip. -- in
Pressure 29.95 in
Visibility 10.0 miles
Clouds Mostly Cloudy 7500 ft
Mostly Cloudy 10000 ft
Windchill 43 °F
Dew Point 23 °F
Humidity 40%
Rainfall 0.00 in
Snow Depth Not available.
6:49 AM 5:59 PM
New Moon, 0% visible
METAR KOTM 262253Z AUTO 23010KT 10SM BKN075 BKN100 08/M04 A2993 RMK AO2 SLP142 T00831039
Pressure 29.95 in
Visibility 10.0 miles
Clouds Mostly Cloudy 7500 ft
Mostly Cloudy 10000 ft
Windchill 43 °F
Dew Point 23 °F
Humidity 40%
Rainfall 0.00 in
Snow Depth Not available.
6:49 AM 5:59 PM
New Moon, 0% visible
METAR KOTM 262253Z AUTO 23010KT 10SM BKN075 BKN100 08/M04 A2993 RMK AO2 SLP142 T00831039

Get Your Daily Forecast Email!

Thanks for signing up!

Be on the lookout for a verification email in your inbox.

You'll start receiving the daily forecast at 8 AM.

×

10-Day Weather Forecast

Almanac

Astronomy

Feb. 26, 2017 Rise Set
Actual Time
Civil Twilight
Nautical Twilight
Astronomical Twilight
Moon
Length of Visible Light
Length of Day
Tomorrow will be .
, % of the Moon is Illuminated

Today's Extremes

State Highs State Lows

Community

WunderPhotos

Upload Photos

1,962,540 photos uploaded!

WunderBlog® & News

Nearby

Air Quality

  Air Quality AQ Index Pollutant
Not available.

Snow Depth

Station Depth Elevation

Earthquake Activity

City Distance Mag. Time & Date
Minimum magnitude displayed is 2.5.

Coastal Water Temperatures

Place Temperature

Stations

Nearby Weather Stations

Station Location Temp. Windchill Dew Point Humidity Wind Precip. Elev Updated Type
                   

Watches & Warnings

There are currently no watches in effect.